»·PEaware :: N851TX KSAT-KELP

N851TX :: KSAT-KELP

FLIGHT INFORMATION

Flight Status: Arrived
Operator: Privately registered:
United States
More flights under this callsign
Pilot: Andrew J. (13363)
Aircraft: SOCATA TBM-900
(TBM9)
More flights by this aircraft type
Origin: KSAT San Antonio Intl
United States
Destination: KELP El Paso Intl
United States
More flights between these airports :: More routes between these airports
Route: ALISS5 FST J2 ELP
File this flight plan on PilotEdge
Remarks:
Altitude:
(Current/Filed)
28,000ft
Speed:
(Current/Filed)
312kts
Departed: 01-Aug-18 08:12 PM
Arrived: 01-Aug-18 09:49 PM
Distance/Time
Traveled:
430nm/1:37
Distance/Time
To Go:
Arrived

Flight Plot

Page will automatically refresh every two minutes.

Flight plan parsing failed; only flown route is shown


Map Options




Map Legend


Flown Route
Filed Route
Departure Airport
Arrival Airport
Navaid (VOR, NDB)
Fix

Horizontal Profiles

Position Reports

Time Latitude Longitude Heading Altitude Ground
Speed
01-Aug-18 20:06 29.521412 -98.467476 38 812ft 0kts
01-Aug-18 20:07 29.521412 -98.467476 38 812ft 0kts
01-Aug-18 20:08 29.521412 -98.467476 38 812ft 0kts
01-Aug-18 20:09 29.521412 -98.467476 38 812ft 0kts
01-Aug-18 20:10 29.521412 -98.467476 38 812ft 0kts
01-Aug-18 20:11 29.521412 -98.467476 38 812ft 0kts
01-Aug-18 20:12 29.522700 -98.468581 313 812ft 14kts
01-Aug-18 20:13 29.526761 -98.466382 40 812ft 72kts
01-Aug-18 20:14 29.553774 -98.439796 42 2022ft 143kts
01-Aug-18 20:15 29.582875 -98.451693 314 3980ft 151kts
01-Aug-18 20:16 29.613632 -98.484026 323 5767ft 151kts
01-Aug-18 20:17 29.644962 -98.515587 324 7437ft 151kts
01-Aug-18 20:18 29.676187 -98.547063 324 9044ft 150kts
01-Aug-18 20:19 29.707358 -98.578515 324 11007ft 148kts
01-Aug-18 20:20 29.737858 -98.609325 323 12890ft 148kts
01-Aug-18 20:21 29.769127 -98.640935 323 14523ft 152kts
01-Aug-18 20:22 29.798410 -98.677178 314 16058ft 161kts
01-Aug-18 20:23 29.826761 -98.717155 314 17889ft 163kts
01-Aug-18 20:24 29.855687 -98.758035 315 19646ft 167kts
01-Aug-18 20:25 29.885286 -98.799908 315 21243ft 171kts
01-Aug-18 20:26 29.910583 -98.835588 315 22478ft 177kts
01-Aug-18 20:27 29.947359 -98.887460 314 24294ft 193kts
01-Aug-18 20:28 29.976912 -98.929249 314 25322ft 206kts
01-Aug-18 20:29 30.013213 -98.980643 315 26644ft 209kts
01-Aug-18 20:30 30.056936 -99.042582 315 27810ft 221kts
01-Aug-18 20:31 30.090629 -99.090351 314 28112ft 244kts
01-Aug-18 20:32 30.142711 -99.166397 313 28111ft 271kts
01-Aug-18 20:33 30.181646 -99.224451 313 28107ft 279kts
01-Aug-18 20:34 30.229587 -99.296058 313 28104ft 283kts
01-Aug-18 20:35 30.269816 -99.374617 288 28106ft 298kts
01-Aug-18 20:36 30.288505 -99.468010 289 28092ft 299kts
01-Aug-18 20:37 30.307544 -99.561580 289 28086ft 299kts
01-Aug-18 20:38 30.326516 -99.655150 289 28084ft 300kts
01-Aug-18 20:39 30.345500 -99.749133 289 28083ft 300kts
01-Aug-18 20:40 30.364415 -99.843144 289 28083ft 300kts
01-Aug-18 20:41 30.383312 -99.937427 289 28086ft 300kts
01-Aug-18 20:42 30.402086 -100.031485 289 28083ft 300kts
01-Aug-18 20:43 30.420819 -100.125695 289 28091ft 300kts
01-Aug-18 20:44 30.439483 -100.219953 289 28116ft 300kts
01-Aug-18 20:45 30.457968 -100.313687 289 28141ft 299kts
01-Aug-18 20:46 30.476501 -100.408022 289 28147ft 300kts
01-Aug-18 20:47 30.494942 -100.502296 289 28146ft 300kts
01-Aug-18 20:48 30.513276 -100.596369 289 28147ft 300kts
01-Aug-18 20:49 30.531544 -100.690515 288 28145ft 300kts
01-Aug-18 20:50 30.549713 -100.784522 288 28146ft 300kts
01-Aug-18 20:51 30.567932 -100.879153 288 28139ft 301kts
01-Aug-18 20:52 30.586223 -100.974549 288 28133ft 305kts
01-Aug-18 20:53 30.604679 -101.071246 288 28128ft 308kts
01-Aug-18 20:54 30.623199 -101.168724 288 28128ft 310kts
01-Aug-18 20:55 30.641749 -101.266744 288 28128ft 311kts
01-Aug-18 20:56 30.660280 -101.365091 287 28127ft 312kts
01-Aug-18 20:57 30.678725 -101.463445 288 28128ft 312kts
01-Aug-18 20:58 30.697106 -101.561906 288 28128ft 312kts
01-Aug-18 20:59 30.715338 -101.659993 287 28126ft 312kts
01-Aug-18 21:00 30.733557 -101.758449 287 28125ft 312kts
01-Aug-18 21:01 30.751729 -101.857093 287 28125ft 312kts
01-Aug-18 21:02 30.769819 -101.955719 287 28126ft 313kts
01-Aug-18 21:03 30.787869 -102.054603 287 28126ft 314kts
01-Aug-18 21:04 30.805915 -102.153893 287 28124ft 314kts
01-Aug-18 21:05 30.823915 -102.253395 287 28117ft 315kts
01-Aug-18 21:06 30.841824 -102.352857 287 28117ft 315kts
01-Aug-18 21:07 30.859690 -102.452528 287 28117ft 314kts
01-Aug-18 21:08 30.877450 -102.552068 287 28117ft 314kts
01-Aug-18 21:09 30.894952 -102.650642 287 28117ft 314kts
01-Aug-18 21:10 30.912422 -102.749470 287 28114ft 315kts
01-Aug-18 21:11 30.930033 -102.849569 287 28114ft 316kts
01-Aug-18 21:12 30.947594 -102.949877 287 28114ft 317kts
01-Aug-18 21:13 30.971889 -103.047217 293 28116ft 312kts
01-Aug-18 21:14 30.998285 -103.143083 293 28116ft 309kts
01-Aug-18 21:15 31.022354 -103.230771 292 28112ft 304kts
01-Aug-18 21:16 31.047622 -103.323109 292 28105ft 300kts
01-Aug-18 21:17 31.072782 -103.415295 292 28098ft 299kts
01-Aug-18 21:18 31.097636 -103.506648 292 28095ft 298kts
01-Aug-18 21:19 31.122475 -103.598218 292 28103ft 299kts
01-Aug-18 21:20 31.147405 -103.690436 292 28103ft 299kts
01-Aug-18 21:21 31.172267 -103.782687 292 28103ft 299kts
01-Aug-18 21:22 31.197260 -103.875719 292 28103ft 300kts
01-Aug-18 21:23 31.222075 -103.968388 292 28102ft 300kts
01-Aug-18 21:24 31.246872 -104.061282 292 28102ft 300kts
01-Aug-18 21:25 31.271596 -104.154204 292 28102ft 300kts
01-Aug-18 21:26 31.296225 -104.247070 292 28102ft 300kts
01-Aug-18 21:27 31.320813 -104.340082 292 28102ft 300kts
01-Aug-18 21:28 31.345406 -104.433414 292 28101ft 300kts
01-Aug-18 21:29 31.369804 -104.526309 292 28106ft 299kts
01-Aug-18 21:30 31.394157 -104.619336 292 28109ft 299kts
01-Aug-18 21:31 31.418050 -104.710908 291 28110ft 300kts
01-Aug-18 21:32 31.442296 -104.804134 291 28110ft 300kts
01-Aug-18 21:33 31.467363 -104.900695 291 27006ft 328kts
01-Aug-18 21:34 31.494178 -105.004416 289 25277ft 337kts
01-Aug-18 21:35 31.520872 -105.108039 286 23482ft 330kts
01-Aug-18 21:36 31.546694 -105.209038 285 21668ft 321kts
01-Aug-18 21:37 31.572011 -105.308189 284 19869ft 320kts
01-Aug-18 21:38 31.597248 -105.407361 284 18069ft 318kts
01-Aug-18 21:39 31.622456 -105.506796 284 16267ft 319kts
01-Aug-18 21:40 31.647638 -105.606480 285 14472ft 320kts
01-Aug-18 21:41 31.672181 -105.703971 285 12673ft 309kts
01-Aug-18 21:42 31.696263 -105.799905 285 10919ft 303kts
01-Aug-18 21:43 31.719557 -105.893072 285 9521ft 295kts
01-Aug-18 21:44 31.741897 -105.982722 285 8894ft 274kts
01-Aug-18 21:45 31.763473 -106.069600 285 7996ft 278kts
01-Aug-18 21:46 31.794846 -106.196403 285 6987ft 269kts
01-Aug-18 21:47 31.800117 -106.277821 267 5508ft 211kts
01-Aug-18 21:48 31.799526 -106.337363 274 4621ft 149kts
01-Aug-18 21:49 31.801135 -106.370411 275 3961ft 65kts
01-Aug-18 21:50 31.799916 -106.377514 183 3961ft 5kts
01-Aug-18 21:51 31.798336 -106.375779 114 3961ft 13kts
01-Aug-18 21:52 31.797509 -106.375343 259 3961ft 0kts
01-Aug-18 21:53 31.797509 -106.375343 259 3961ft 0kts
01-Aug-18 21:54 31.797509 -106.375343 259 3961ft 0kts
01-Aug-18 21:55 31.797509 -106.375343 259 3961ft 0kts

Navigation Log

Ident Type
Flight plan parsing failed, navigation log unavailable